KRRT

Warroad International Memorial Airport

Warroad, Minnesota, USA
METAR KRRT 120115Z AUTO 16005KT 2 1/2SM -SN SCT019 SCT028 M03/M06 A2982 RMK AO2
Observed Flight Rules
Dec-12 @ 01:15 UTC (21 minutes ago) Instrument Flight Rules
Wind Visibility Clouds Conditions
160° at 5 knots 2 1/2 miles
  • Scattered at 1,900' AGL
  • Scattered at 2,800' AGL
  • Light Snow
Temperatures Readings
Current -3°C / 27°F
Dewpoint -6°C / 21°F
Humidity 80%
Altimeter 29.82" Hg
Pressure 1010 hPa
Elevation 327
METAR KRRT 120115Z AUTO 16005KT 2 1/2SM -SN SCT019 SCT028 M03/M06 A2982 RMK AO2
Observed Flight Rules
Dec-12 @ 01:15 UTC
(21 minutes ago)
IFR
Wind Visibility
160° at 5 knots 2 1/2 miles
Clouds
  • Scattered at 1,900' AGL
  • Scattered at 2,800' AGL
Conditions
  • Light Snow
Temperature Dewpoint
-3°C / 27°F -6°C / 21°F
Humidity Altimeter Pressure
80% 29.82" Hg 1010 hPa